createdAt,value
2024-04-10T00:03:38.777Z,57.82
2024-04-10T00:13:00.009Z,57.95
2024-04-10T00:18:02.330Z,58.37
2024-04-10T00:23:06.718Z,58.64
2024-04-10T00:28:08.846Z,58.80
2024-04-10T00:33:11.193Z,58.68
2024-04-10T00:38:15.814Z,59.07
2024-04-10T00:43:21.553Z,59.36
2024-04-10T00:48:25.693Z,59.78
2024-04-10T00:53:31.490Z,59.92
2024-04-10T00:58:34.831Z,59.96
2024-04-10T01:03:39.886Z,59.75
2024-04-10T01:08:42.237Z,59.93
2024-04-10T01:13:44.398Z,59.97
2024-04-10T01:18:46.555Z,59.82
2024-04-10T01:23:48.718Z,59.75
2024-04-10T01:28:50.842Z,59.75
2024-04-10T01:33:53.176Z,59.51
2024-04-10T01:38:55.480Z,59.91
2024-04-10T01:43:58.405Z,59.82
2024-04-10T01:49:00.765Z,59.77
2024-04-10T01:54:03.168Z,59.70
2024-04-10T01:59:10.198Z,59.76
2024-04-10T02:04:12.361Z,59.71
2024-04-10T02:09:14.553Z,59.52
2024-04-10T02:14:16.786Z,59.87
2024-04-10T02:19:19.413Z,60.00
2024-04-10T02:24:22.649Z,59.76
2024-04-10T02:29:25.945Z,59.67
2024-04-10T02:34:28.303Z,59.84
2024-04-10T02:39:30.854Z,59.99
2024-04-10T02:44:33.151Z,60.06
2024-04-10T02:49:35.394Z,60.05
2024-04-10T02:54:37.527Z,60.30
2024-04-10T02:59:39.556Z,60.36
2024-04-10T03:04:42.395Z,60.67
2024-04-10T03:09:44.658Z,60.61
2024-04-10T03:14:47.273Z,60.67
2024-04-10T03:19:51.671Z,61.11
2024-04-10T03:24:54.143Z,60.60
2024-04-10T03:29:56.712Z,60.89
2024-04-10T03:34:59.203Z,61.06
2024-04-10T03:40:02.358Z,60.76
2024-04-10T03:45:06.064Z,61.08
2024-04-10T03:50:13.370Z,61.44
2024-04-10T03:55:16.997Z,61.69
2024-04-10T04:00:23.605Z,61.75
2024-04-10T04:05:26.500Z,61.79
2024-04-10T04:10:28.865Z,62.18
2024-04-10T04:15:31.287Z,62.21
2024-04-10T04:20:33.697Z,62.36
2024-04-10T04:25:36.519Z,62.37
2024-04-10T04:30:38.675Z,62.24
2024-04-10T04:35:41.519Z,62.43
2024-04-10T04:40:43.844Z,62.27
2024-04-10T04:45:46.259Z,62.34
2024-04-10T04:50:51.173Z,62.60
2024-04-10T04:56:00.870Z,63.00
2024-04-10T05:01:04.147Z,62.84
2024-04-10T05:12:47.168Z,62.56
2024-04-10T05:17:53.570Z,62.83
2024-04-10T05:22:56.114Z,62.83
2024-04-10T05:34:59.420Z,63.25
2024-04-10T05:40:07.944Z,63.63
2024-04-10T05:45:12.413Z,63.83
2024-04-10T05:50:14.777Z,64.10
2024-04-10T05:55:17.187Z,64.17
2024-04-10T06:00:19.629Z,64.37
2024-04-10T06:05:22.066Z,64.28
2024-04-10T06:10:24.949Z,64.30
2024-04-10T06:21:08.972Z,64.77
2024-04-10T06:26:11.379Z,65.10
2024-04-10T06:31:15.375Z,65.69
2024-04-10T06:36:17.807Z,65.49
2024-04-10T06:41:22.990Z,65.48
2024-04-10T06:46:26.337Z,65.64
2024-04-10T06:51:28.683Z,65.91
2024-04-10T06:56:31.120Z,65.91
2024-04-10T07:01:35.635Z,65.80
2024-04-10T07:06:40.981Z,65.57
2024-04-10T07:11:43.475Z,65.70
2024-04-10T07:16:46.238Z,65.88
2024-04-10T07:21:49.602Z,65.79
2024-04-10T07:26:51.839Z,66.41
2024-04-10T07:31:54.196Z,66.12
2024-04-10T07:37:07.272Z,66.25
2024-04-10T07:42:10.772Z,66.27
2024-04-10T07:47:13.700Z,65.71
2024-04-10T07:52:16.331Z,65.49
2024-04-10T07:57:19.582Z,65.12
2024-04-10T08:02:22.459Z,65.31
2024-04-10T08:07:25.783Z,64.98
2024-04-10T08:12:28.078Z,64.83
2024-04-10T08:17:33.235Z,64.25
2024-04-10T08:22:35.607Z,64.26
2024-04-10T08:27:38.784Z,63.68
2024-04-10T08:32:41.699Z,63.34
2024-04-10T08:37:44.522Z,63.04
2024-04-10T08:42:51.453Z,61.50
2024-04-10T08:47:54.768Z,61.25
2024-04-10T08:52:59.890Z,61.31
2024-04-10T08:58:04.705Z,61.09
2024-04-10T09:03:08.262Z,60.13
2024-04-10T09:08:15.012Z,59.98
2024-04-10T09:13:17.321Z,59.96
2024-04-10T09:18:23.785Z,58.97
2024-04-10T09:23:28.974Z,58.61
2024-04-10T09:29:13.802Z,59.25
2024-04-10T09:34:23.954Z,58.45
2024-04-10T09:39:30.073Z,58.00
2024-04-10T09:44:34.383Z,57.73
2024-04-10T09:49:51.099Z,57.41
2024-04-10T09:54:54.178Z,55.93
2024-04-10T09:59:58.535Z,56.63
2024-04-10T10:05:07.517Z,55.82
2024-04-10T10:10:11.652Z,55.22
2024-04-10T10:15:14.158Z,55.22
2024-04-10T10:20:26.024Z,55.46
2024-04-10T10:25:30.816Z,54.42
2024-04-10T10:30:46.500Z,54.71
2024-04-10T10:35:57.764Z,53.75
2024-04-10T10:41:17.249Z,53.11
2024-04-10T10:46:22.705Z,53.80
2024-04-10T10:51:25.915Z,53.05
2024-04-10T10:56:29.642Z,53.78
2024-04-10T11:01:31.992Z,53.08
2024-04-10T11:06:34.368Z,53.53
2024-04-10T11:11:48.722Z,52.89
2024-04-10T11:17:08.562Z,51.83
2024-04-10T11:22:22.187Z,51.53
2024-04-10T11:27:25.853Z,51.78
2024-04-10T11:32:31.114Z,51.35
2024-04-10T11:37:33.944Z,50.45
2024-04-10T11:42:36.136Z,50.69
2024-04-10T11:47:39.340Z,50.35
2024-04-10T11:52:48.070Z,51.18
2024-04-10T11:57:50.266Z,50.56
2024-04-10T12:03:05.364Z,50.16
2024-04-10T12:08:10.468Z,50.06
2024-04-10T12:13:22.169Z,48.73
2024-04-10T12:18:24.260Z,48.74
2024-04-10T12:28:48.896Z,48.66
2024-04-10T12:33:56.980Z,48.85
2024-04-10T12:38:59.991Z,49.15
2024-04-10T12:44:19.341Z,49.13
2024-04-10T12:49:45.768Z,48.75
2024-04-10T12:54:49.773Z,48.82
2024-04-10T12:59:56.056Z,49.17
2024-04-10T13:05:05.529Z,49.14
2024-04-10T13:10:12.210Z,49.24
2024-04-10T13:15:34.473Z,49.01
2024-04-10T13:20:47.800Z,48.92
2024-04-10T13:26:10.719Z,49.63
2024-04-10T13:31:14.772Z,49.93
2024-04-10T13:36:35.948Z,49.59
2024-04-10T13:41:40.863Z,48.72
2024-04-10T13:46:44.230Z,47.14
2024-04-10T13:51:51.835Z,47.05
2024-04-10T13:57:05.779Z,47.66
2024-04-10T14:02:27.641Z,47.67
2024-04-10T14:07:44.963Z,47.74
2024-04-10T14:12:47.510Z,48.19
2024-04-10T14:18:19.438Z,48.50
2024-04-10T14:23:28.097Z,48.51
2024-04-10T14:28:33.229Z,48.88
2024-04-10T14:33:39.786Z,48.89
2024-04-10T14:38:46.546Z,49.14
2024-04-10T14:44:02.974Z,49.17
2024-04-10T14:49:20.999Z,49.08
2024-04-10T14:54:31.361Z,49.12
2024-04-10T14:59:34.928Z,48.46
2024-04-10T15:04:38.028Z,48.35
2024-04-10T15:09:41.019Z,48.01
2024-04-10T15:14:44.108Z,48.14
2024-04-10T15:19:49.655Z,48.24
2024-04-10T15:24:52.450Z,48.36
2024-04-10T15:29:54.803Z,48.91
2024-04-10T15:35:00.016Z,49.51
2024-04-10T15:40:03.778Z,50.09
2024-04-10T15:45:08.546Z,50.18
2024-04-10T15:50:11.139Z,50.53
2024-04-10T15:55:16.667Z,50.97
2024-04-10T16:00:19.165Z,50.99
2024-04-10T16:05:29.819Z,51.33
2024-04-10T16:10:38.961Z,51.78
2024-04-10T16:15:44.477Z,51.67
2024-04-10T16:20:48.025Z,51.72
2024-04-10T16:25:50.531Z,51.83
2024-04-10T16:30:52.888Z,51.71
2024-04-10T16:36:05.649Z,52.23
2024-04-10T16:41:09.334Z,51.73
2024-04-10T16:46:14.478Z,51.38
2024-04-10T16:51:17.144Z,51.51
2024-04-10T16:56:21.245Z,52.00
2024-04-10T17:01:25.154Z,51.88
2024-04-10T17:06:28.076Z,51.83
2024-04-10T17:11:32.712Z,52.16
2024-04-10T17:16:38.820Z,52.19
2024-04-10T17:21:47.677Z,51.86
2024-04-10T17:26:50.212Z,51.85
2024-04-10T17:31:56.468Z,51.80
2024-04-10T17:36:58.924Z,52.03
2024-04-10T17:42:01.748Z,51.93
2024-04-10T17:47:11.659Z,52.41
2024-04-10T17:52:14.178Z,52.48
2024-04-10T17:57:18.561Z,52.85
2024-04-10T18:02:21.978Z,53.27
2024-04-10T18:07:24.372Z,53.48
2024-04-10T18:12:26.531Z,54.13
2024-04-10T18:17:28.915Z,53.84
2024-04-10T18:22:31.492Z,54.22
2024-04-10T18:27:34.304Z,54.66
2024-04-10T18:32:38.031Z,54.67
2024-04-10T18:37:40.817Z,54.71
2024-04-10T18:42:43.051Z,54.77
2024-04-10T18:47:47.929Z,55.22
2024-04-10T18:52:52.232Z,55.36
2024-04-10T18:57:54.281Z,55.33
2024-04-10T19:03:03.378Z,55.52
2024-04-10T19:08:06.186Z,55.81
2024-04-10T19:13:08.605Z,55.97
2024-04-10T19:18:12.361Z,55.72
2024-04-10T19:23:14.920Z,55.65
2024-04-10T19:28:17.407Z,55.85
2024-04-10T19:33:19.726Z,55.84
2024-04-10T19:38:21.976Z,56.05
2024-04-10T19:43:24.414Z,56.04
2024-04-10T19:48:28.436Z,56.24
2024-04-10T19:53:32.323Z,56.20
2024-04-10T19:58:36.203Z,56.63
2024-04-10T20:03:43.913Z,56.44
2024-04-10T20:08:47.227Z,56.67
2024-04-10T20:13:50.391Z,56.71
2024-04-10T20:18:53.195Z,56.65
2024-04-10T20:23:55.804Z,57.16
2024-04-10T20:28:58.098Z,57.10
2024-04-10T20:34:03.600Z,56.93
2024-04-10T20:39:08.203Z,57.12
2024-04-10T20:44:11.963Z,57.06
2024-04-10T20:49:14.602Z,57.22
2024-04-10T20:54:19.632Z,57.43
2024-04-10T20:59:22.041Z,57.44
2024-04-10T21:04:24.479Z,57.56
2024-04-10T21:09:45.024Z,57.73
2024-04-10T21:15:10.616Z,57.88
2024-04-10T21:20:32.299Z,57.68
2024-04-10T21:25:53.636Z,57.54
2024-04-10T21:31:14.266Z,57.71
2024-04-10T21:36:34.996Z,57.94
2024-04-10T21:41:57.131Z,57.88
2024-04-10T21:47:18.269Z,57.32
2024-04-10T21:52:39.549Z,57.50
2024-04-10T21:58:00.402Z,57.69
2024-04-10T22:03:24.344Z,57.87
2024-04-10T22:08:45.682Z,57.80
2024-04-10T22:13:48.560Z,57.74
2024-04-10T22:19:09.824Z,57.59
2024-04-10T22:24:12.299Z,57.80
2024-04-10T22:29:15.660Z,57.82
2024-04-10T22:34:17.850Z,57.67
2024-04-10T22:39:20.343Z,57.84
2024-04-10T22:44:22.591Z,57.93
2024-04-10T22:49:24.972Z,57.91
2024-04-10T22:54:29.678Z,58.05
2024-04-10T22:59:31.852Z,58.33
2024-04-10T23:04:34.169Z,57.96
2024-04-10T23:09:36.733Z,57.70
2024-04-10T23:14:39.472Z,57.86
2024-04-10T23:19:41.955Z,58.21
2024-04-10T23:24:45.948Z,58.03
2024-04-10T23:29:54.507Z,58.04
2024-04-10T23:34:57.041Z,58.20
2024-04-10T23:45:09.823Z,58.07
2024-04-10T23:50:11.995Z,58.03
2024-04-10T23:55:15.648Z,58.21
